createdAt,value
2022-09-15T00:02:23.116Z,93.41
2022-09-15T00:04:53.897Z,93.51
2022-09-15T00:07:23.099Z,93.41
2022-09-15T00:09:51.488Z,93.49
2022-09-15T00:12:23.774Z,93.65
2022-09-15T00:14:52.245Z,93.52
2022-09-15T00:17:21.000Z,93.64
2022-09-15T00:19:49.770Z,93.55
2022-09-15T00:22:20.001Z,93.40
2022-09-15T00:24:51.240Z,93.48
2022-09-15T00:27:20.868Z,93.59
2022-09-15T00:29:50.178Z,93.45
2022-09-15T00:32:18.431Z,93.50
2022-09-15T00:34:51.216Z,93.60
2022-09-15T00:37:19.535Z,93.71
2022-09-15T00:39:53.891Z,93.73
2022-09-15T00:43:05.016Z,93.71
2022-09-15T00:45:37.845Z,93.69
2022-09-15T00:48:10.870Z,93.81
2022-09-15T00:50:44.915Z,93.85
2022-09-15T00:53:16.835Z,93.93
2022-09-15T00:55:48.464Z,94.08
2022-09-15T00:58:33.219Z,94.12
2022-09-15T01:01:10.534Z,94.12
2022-09-15T01:03:56.133Z,94.14
2022-09-15T01:06:35.532Z,94.08
2022-09-15T01:09:16.600Z,94.17
2022-09-15T01:11:45.115Z,94.20
2022-09-15T01:14:15.534Z,94.13
2022-09-15T01:17:01.750Z,94.14
2022-09-15T01:20:07.089Z,94.20
2022-09-15T01:23:13.577Z,94.32
2022-09-15T01:26:11.899Z,94.54
2022-09-15T01:29:22.599Z,94.85
2022-09-15T01:32:28.037Z,94.81
2022-09-15T01:35:14.760Z,95.13
2022-09-15T01:37:49.048Z,95.05
2022-09-15T01:40:21.236Z,95.27
2022-09-15T01:42:51.550Z,95.28
2022-09-15T01:45:29.157Z,95.23
2022-09-15T01:48:00.421Z,95.20
2022-09-15T01:50:44.928Z,95.38
2022-09-15T01:53:20.623Z,95.55
2022-09-15T01:56:02.595Z,95.54
2022-09-15T01:58:31.022Z,95.76
2022-09-15T02:01:10.295Z,95.91
2022-09-15T02:04:15.804Z,96.09
2022-09-15T02:07:03.194Z,96.12
2022-09-15T02:09:46.766Z,96.01
2022-09-15T02:12:29.279Z,95.47
2022-09-15T02:15:05.856Z,95.00
2022-09-15T02:17:38.412Z,95.26
2022-09-15T02:20:16.112Z,95.18
2022-09-15T02:22:50.642Z,95.36
2022-09-15T02:25:41.163Z,95.45
2022-09-15T02:28:13.150Z,95.35
2022-09-15T02:30:45.046Z,95.58
2022-09-15T02:33:20.618Z,95.44
2022-09-15T02:35:49.047Z,95.69
2022-09-15T02:38:18.223Z,95.67
2022-09-15T02:40:48.391Z,95.70
2022-09-15T02:43:18.944Z,95.56
2022-09-15T02:45:47.403Z,95.52
2022-09-15T02:48:16.386Z,95.42
2022-09-15T02:50:45.258Z,95.43
2022-09-15T02:53:13.021Z,95.15
2022-09-15T02:55:42.090Z,95.38
2022-09-15T02:58:09.892Z,95.52
2022-09-15T03:00:39.384Z,95.71
2022-09-15T03:03:08.509Z,95.76
2022-09-15T03:05:36.612Z,96.10
2022-09-15T03:08:04.870Z,96.19
2022-09-15T03:10:33.846Z,96.12
2022-09-15T03:13:01.717Z,95.96
2022-09-15T03:15:29.819Z,96.22
2022-09-15T03:17:58.136Z,96.22
2022-09-15T03:20:31.093Z,96.50
2022-09-15T03:22:59.096Z,96.41
2022-09-15T03:25:27.791Z,96.70
2022-09-15T03:27:56.396Z,96.79
2022-09-15T03:30:24.855Z,96.70
2022-09-15T03:32:53.751Z,96.88
2022-09-15T03:35:21.506Z,96.81
2022-09-15T03:37:49.681Z,96.79
2022-09-15T03:40:18.650Z,96.99
2022-09-15T03:42:46.879Z,96.98
2022-09-15T03:45:16.059Z,97.02
2022-09-15T03:47:43.776Z,97.02
2022-09-15T03:50:12.448Z,96.91
2022-09-15T03:52:40.411Z,96.83
2022-09-15T03:55:09.706Z,96.78
2022-09-15T03:57:37.850Z,96.64
2022-09-15T04:00:08.713Z,96.48
2022-09-15T04:02:36.662Z,96.43
2022-09-15T04:05:05.007Z,96.41
2022-09-15T04:07:34.544Z,96.48
2022-09-15T04:10:02.580Z,96.63
2022-09-15T04:12:32.615Z,96.60
2022-09-15T04:15:01.373Z,96.66
2022-09-15T04:17:29.503Z,96.40
2022-09-15T04:19:57.825Z,96.42
2022-09-15T04:22:26.009Z,96.15
2022-09-15T04:24:53.919Z,96.27
2022-09-15T04:27:21.985Z,96.12
2022-09-15T04:29:53.662Z,96.40
2022-09-15T04:32:23.872Z,96.30
2022-09-15T04:34:53.549Z,96.44
2022-09-15T04:37:22.842Z,96.43
2022-09-15T04:39:51.799Z,96.45
2022-09-15T04:42:22.380Z,96.56
2022-09-15T04:44:51.266Z,96.49
2022-09-15T04:47:23.168Z,96.38
2022-09-15T04:49:50.993Z,96.34
2022-09-15T04:52:19.867Z,96.48
2022-09-15T04:54:47.726Z,99.41
2022-09-15T04:57:16.235Z,100.00
2022-09-15T04:59:44.004Z,99.77
2022-09-15T05:02:12.548Z,98.61
2022-09-15T05:04:40.419Z,97.89
2022-09-15T05:07:08.936Z,97.38
2022-09-15T05:09:40.627Z,96.95
2022-09-15T05:12:09.472Z,96.98
2022-09-15T05:14:37.204Z,96.46
2022-09-15T05:17:05.408Z,95.63
2022-09-15T05:19:34.137Z,95.11
2022-09-15T05:22:03.176Z,94.96
2022-09-15T05:24:34.121Z,95.13
2022-09-15T05:27:02.263Z,94.99
2022-09-15T05:29:30.236Z,94.96
2022-09-15T05:31:58.437Z,95.00
2022-09-15T05:34:36.489Z,95.05
2022-09-15T05:37:05.588Z,94.97
2022-09-15T05:39:33.768Z,94.88
2022-09-15T05:42:01.692Z,94.94
2022-09-15T05:44:29.609Z,94.87
2022-09-15T05:46:57.432Z,94.95
2022-09-15T05:49:25.237Z,95.38
2022-09-15T05:51:53.592Z,94.80
2022-09-15T05:54:22.251Z,94.82
2022-09-15T05:56:50.849Z,94.63
2022-09-15T05:59:19.061Z,94.65
2022-09-15T06:01:48.123Z,94.63
2022-09-15T06:04:16.742Z,94.21
2022-09-15T06:06:44.498Z,93.74
2022-09-15T06:09:12.564Z,92.83
2022-09-15T06:11:40.326Z,93.13
2022-09-15T06:14:08.935Z,93.27
2022-09-15T06:16:37.326Z,93.46
2022-09-15T06:19:05.393Z,93.36
2022-09-15T06:21:33.587Z,93.24
2022-09-15T06:24:03.949Z,92.55
2022-09-15T06:26:32.158Z,91.97
2022-09-15T06:29:03.457Z,91.93
2022-09-15T06:31:33.610Z,92.25
2022-09-15T06:34:04.146Z,91.09
2022-09-15T06:36:33.101Z,90.73
2022-09-15T06:39:01.147Z,90.60
2022-09-15T06:41:47.415Z,91.07
2022-09-15T06:44:21.024Z,89.94
2022-09-15T06:46:49.563Z,89.80
2022-09-15T06:49:18.293Z,89.96
2022-09-15T06:51:46.824Z,88.95
2022-09-15T06:54:18.818Z,88.33
2022-09-15T06:56:47.379Z,88.01
2022-09-15T06:59:19.725Z,88.05
2022-09-15T07:01:54.781Z,87.90
2022-09-15T07:04:22.691Z,87.59
2022-09-15T07:06:50.775Z,87.47
2022-09-15T07:09:19.727Z,87.02
2022-09-15T07:11:48.769Z,86.82
2022-09-15T07:14:16.536Z,86.47
2022-09-15T07:16:44.975Z,86.44
2022-09-15T07:19:13.162Z,86.27
2022-09-15T07:21:40.953Z,86.20
2022-09-15T07:24:11.120Z,85.83
2022-09-15T07:26:40.995Z,85.53
2022-09-15T07:29:09.885Z,85.65
2022-09-15T07:31:39.182Z,85.78
2022-09-15T07:34:07.821Z,84.94
2022-09-15T07:36:35.995Z,84.16
2022-09-15T07:39:05.575Z,84.50
2022-09-15T07:41:33.638Z,84.65
2022-09-15T07:44:01.991Z,84.26
2022-09-15T07:46:32.862Z,84.32
2022-09-15T07:49:03.193Z,83.92
2022-09-15T07:51:31.646Z,83.88
2022-09-15T07:53:59.806Z,83.60
2022-09-15T07:56:28.146Z,84.05
2022-09-15T07:58:56.849Z,83.66
2022-09-15T08:01:24.681Z,83.20
2022-09-15T08:03:52.912Z,83.02
2022-09-15T08:06:23.348Z,82.50
2022-09-15T08:08:56.325Z,82.17
2022-09-15T08:11:28.433Z,81.96
2022-09-15T08:13:56.438Z,81.80
2022-09-15T08:16:24.925Z,81.91
2022-09-15T08:18:54.204Z,81.40
2022-09-15T08:21:23.073Z,81.37
2022-09-15T08:23:58.366Z,81.13
2022-09-15T08:26:33.365Z,80.91
2022-09-15T08:29:01.119Z,80.52
2022-09-15T08:31:29.022Z,80.27
2022-09-15T08:33:57.009Z,80.21
2022-09-15T08:36:28.155Z,80.14
2022-09-15T08:38:56.840Z,80.17
2022-09-15T08:41:46.639Z,79.88
2022-09-15T08:44:44.393Z,80.12
2022-09-15T08:47:18.075Z,79.74
2022-09-15T08:50:14.678Z,79.26
2022-09-15T08:52:48.856Z,78.82
2022-09-15T08:55:52.337Z,78.80
2022-09-15T08:58:23.419Z,78.35
2022-09-15T09:01:02.407Z,78.16
2022-09-15T09:03:58.341Z,78.12
2022-09-15T09:06:40.864Z,77.89
2022-09-15T09:09:42.545Z,77.78
2022-09-15T09:12:38.413Z,77.39
2022-09-15T09:15:24.867Z,77.24
2022-09-15T09:18:29.707Z,77.09
2022-09-15T09:21:16.565Z,76.82
2022-09-15T09:24:13.687Z,76.75
2022-09-15T09:26:42.245Z,76.51
2022-09-15T09:29:21.015Z,76.36
2022-09-15T09:31:50.887Z,76.24
2022-09-15T09:34:45.726Z,75.77
2022-09-15T09:37:15.828Z,75.42
2022-09-15T09:39:43.755Z,74.85
2022-09-15T09:42:16.979Z,74.86
2022-09-15T09:44:46.496Z,74.50
2022-09-15T09:47:15.706Z,74.46
2022-09-15T09:49:47.316Z,73.85
2022-09-15T09:52:39.256Z,73.16
2022-09-15T09:55:23.288Z,72.90
2022-09-15T09:57:51.414Z,73.02
2022-09-15T10:00:37.494Z,72.62
2022-09-15T10:03:12.890Z,72.64
2022-09-15T10:05:41.989Z,72.44
2022-09-15T10:08:20.657Z,72.28
2022-09-15T10:10:59.714Z,72.07
2022-09-15T10:13:27.788Z,71.68
2022-09-15T10:15:59.695Z,71.29
2022-09-15T10:18:37.990Z,71.27
2022-09-15T10:21:09.017Z,71.00
2022-09-15T10:23:37.426Z,70.95
2022-09-15T10:26:33.799Z,70.95
2022-09-15T10:29:17.738Z,70.64
2022-09-15T10:31:46.308Z,70.49
2022-09-15T10:34:31.727Z,70.34
2022-09-15T10:37:20.785Z,70.14
2022-09-15T10:39:54.626Z,70.05
2022-09-15T10:42:34.153Z,69.89
2022-09-15T10:45:25.920Z,69.31
2022-09-15T10:48:29.588Z,69.18
2022-09-15T10:51:16.218Z,69.23
2022-09-15T10:53:58.506Z,69.00
2022-09-15T10:56:46.060Z,68.73
2022-09-15T10:59:43.308Z,68.55
2022-09-15T11:02:28.065Z,68.59
2022-09-15T11:05:20.391Z,68.51
2022-09-15T11:07:57.612Z,68.12
2022-09-15T11:10:31.741Z,68.16
2022-09-15T11:13:16.627Z,68.16
2022-09-15T11:16:03.759Z,67.76
2022-09-15T11:18:42.661Z,67.54
2022-09-15T11:21:27.809Z,67.66
2022-09-15T11:24:24.955Z,67.56
2022-09-15T11:27:04.428Z,67.62
2022-09-15T11:29:55.074Z,67.13
2022-09-15T11:32:34.397Z,67.05
2022-09-15T11:35:36.757Z,66.96
2022-09-15T11:38:57.816Z,66.75
2022-09-15T11:41:59.714Z,66.57
2022-09-15T11:44:40.215Z,66.32
2022-09-15T11:47:20.573Z,66.16
2022-09-15T11:50:11.937Z,66.08
2022-09-15T11:53:04.549Z,65.78
2022-09-15T11:56:05.910Z,65.84
2022-09-15T11:59:13.430Z,65.70
2022-09-15T12:02:08.721Z,65.91
2022-09-15T12:04:45.621Z,65.93
2022-09-15T12:07:20.869Z,66.36
2022-09-15T12:09:50.067Z,66.04
2022-09-15T12:12:20.836Z,66.28
2022-09-15T12:14:51.888Z,66.08
2022-09-15T12:17:39.958Z,66.20
2022-09-15T12:20:22.535Z,66.23
2022-09-15T12:23:15.772Z,66.29
2022-09-15T12:26:15.544Z,66.17
2022-09-15T12:28:56.225Z,66.09
2022-09-15T12:31:38.642Z,66.25
2022-09-15T12:34:34.210Z,66.17
2022-09-15T12:37:14.754Z,66.14
2022-09-15T12:39:45.572Z,66.40
2022-09-15T12:42:25.028Z,66.41
2022-09-15T12:45:06.164Z,66.46
2022-09-15T12:47:39.417Z,66.36
2022-09-15T12:50:20.360Z,66.33
2022-09-15T12:52:51.953Z,66.41
2022-09-15T12:55:24.094Z,66.24
2022-09-15T12:58:01.518Z,65.97
2022-09-15T13:00:35.737Z,66.09
2022-09-15T13:03:06.109Z,66.06
2022-09-15T13:06:03.127Z,65.91
2022-09-15T13:08:51.239Z,66.00
2022-09-15T13:11:37.618Z,65.86
2022-09-15T13:14:45.442Z,65.53
2022-09-15T13:17:21.143Z,65.38
2022-09-15T13:19:54.171Z,65.42
2022-09-15T13:22:39.764Z,65.24
2022-09-15T13:25:17.923Z,65.14
2022-09-15T13:27:47.227Z,65.17
2022-09-15T13:30:21.586Z,64.89
2022-09-15T13:39:48.241Z,64.50
2022-09-15T13:42:55.976Z,64.43
2022-09-15T13:45:39.576Z,64.36
2022-09-15T13:48:29.329Z,64.28
2022-09-15T13:51:00.540Z,64.60
2022-09-15T13:53:49.426Z,64.62
2022-09-15T13:56:29.010Z,64.50
2022-09-15T13:59:08.949Z,64.42
2022-09-15T14:01:42.589Z,64.52
2022-09-15T14:04:17.342Z,64.50
2022-09-15T14:06:53.644Z,64.56
2022-09-15T14:09:35.247Z,64.43
2022-09-15T14:12:09.220Z,64.51
2022-09-15T14:14:51.553Z,64.43
2022-09-15T14:17:24.199Z,64.33
2022-09-15T14:19:56.206Z,64.29
2022-09-15T14:22:27.613Z,64.17
2022-09-15T14:25:08.200Z,64.17
2022-09-15T14:27:37.981Z,64.33
2022-09-15T14:30:12.910Z,64.39
2022-09-15T14:32:47.643Z,64.46
2022-09-15T14:35:20.574Z,64.21
2022-09-15T14:37:52.668Z,64.03
2022-09-15T14:40:34.348Z,64.11
2022-09-15T14:43:03.279Z,63.91
2022-09-15T14:46:01.367Z,63.56
2022-09-15T14:48:28.412Z,63.48
2022-09-15T14:51:02.792Z,63.35
2022-09-15T14:53:38.026Z,63.42
2022-09-15T14:56:11.639Z,63.25
2022-09-15T14:58:44.833Z,63.31
2022-09-15T15:01:23.405Z,63.38
2022-09-15T15:04:10.863Z,63.42
2022-09-15T15:06:59.275Z,63.09
2022-09-15T15:09:39.017Z,62.85
2022-09-15T15:12:16.576Z,63.10
2022-09-15T15:14:44.773Z,63.04
2022-09-15T15:17:30.182Z,63.06
2022-09-15T15:20:13.124Z,62.97
2022-09-15T15:22:43.465Z,62.87
2022-09-15T15:25:25.060Z,63.01
2022-09-15T15:27:55.537Z,62.96
2022-09-15T15:30:31.727Z,62.70
2022-09-15T15:33:19.408Z,62.48
2022-09-15T15:36:00.106Z,62.75
2022-09-15T15:38:28.365Z,62.69
2022-09-15T15:41:02.320Z,62.90
2022-09-15T15:43:30.430Z,62.81
2022-09-15T15:46:03.804Z,62.68
2022-09-15T15:48:37.368Z,62.84
2022-09-15T15:51:07.814Z,62.91
2022-09-15T15:53:35.825Z,62.85
2022-09-15T15:56:03.702Z,62.79
2022-09-15T15:58:31.561Z,62.68
2022-09-15T16:01:00.192Z,63.01
2022-09-15T16:03:28.035Z,62.85
2022-09-15T16:05:59.659Z,63.14
2022-09-15T16:08:32.056Z,63.16
2022-09-15T16:11:02.362Z,63.20
2022-09-15T16:13:31.486Z,63.02
2022-09-15T16:16:00.709Z,62.92
2022-09-15T16:18:29.857Z,62.86
2022-09-15T16:20:58.119Z,63.03
2022-09-15T16:23:28.787Z,63.19
2022-09-15T16:26:05.753Z,63.21
2022-09-15T16:28:33.974Z,63.31
2022-09-15T16:31:02.297Z,63.36
2022-09-15T16:33:35.982Z,63.35
2022-09-15T16:36:09.608Z,63.56
2022-09-15T16:38:37.912Z,63.57
2022-09-15T16:41:14.220Z,63.49
2022-09-15T16:43:43.352Z,63.44
2022-09-15T16:46:13.393Z,63.50
2022-09-15T16:48:43.771Z,63.56
2022-09-15T16:51:31.582Z,63.58
2022-09-15T16:54:02.003Z,63.57
2022-09-15T16:56:30.960Z,63.72
2022-09-15T16:59:00.648Z,63.71
2022-09-15T17:01:29.138Z,63.58
2022-09-15T17:03:58.108Z,63.47
2022-09-15T17:06:25.930Z,63.44
2022-09-15T17:08:55.957Z,63.56
2022-09-15T17:11:25.690Z,63.73
2022-09-15T17:13:54.573Z,63.78
2022-09-15T17:16:23.117Z,63.61
2022-09-15T17:18:51.358Z,63.78
2022-09-15T17:21:20.068Z,64.00
2022-09-15T17:23:49.653Z,64.12
2022-09-15T17:26:21.546Z,64.15
2022-09-15T17:28:51.121Z,64.18
2022-09-15T17:31:21.948Z,64.19
2022-09-15T17:33:51.241Z,64.30
2022-09-15T17:36:19.359Z,64.53
2022-09-15T17:38:50.983Z,64.46
2022-09-15T17:41:21.152Z,64.61
2022-09-15T17:43:50.943Z,64.61
2022-09-15T17:46:19.944Z,64.79
2022-09-15T17:48:48.178Z,64.88
2022-09-15T17:51:18.187Z,64.93
2022-09-15T17:53:47.984Z,64.99
2022-09-15T17:56:17.120Z,65.08
2022-09-15T17:58:48.081Z,65.21
2022-09-15T18:01:17.098Z,65.48
2022-09-15T18:03:47.042Z,65.32
2022-09-15T18:06:15.517Z,65.44
2022-09-15T18:08:44.649Z,65.62
2022-09-15T18:11:15.479Z,65.75
2022-09-15T18:13:43.708Z,65.78
2022-09-15T18:16:14.228Z,65.88
2022-09-15T18:18:43.421Z,65.95
2022-09-15T18:21:26.124Z,66.02
2022-09-15T18:23:56.364Z,66.01
2022-09-15T18:26:26.698Z,66.10
2022-09-15T18:28:56.064Z,66.17
2022-09-15T18:31:24.971Z,66.23
2022-09-15T18:33:53.451Z,66.25
2022-09-15T18:36:21.770Z,66.33
2022-09-15T18:38:50.534Z,66.42
2022-09-15T18:41:19.259Z,66.46
2022-09-15T18:43:51.716Z,66.44
2022-09-15T18:46:20.925Z,66.54
2022-09-15T18:48:49.264Z,66.49
2022-09-15T18:51:24.011Z,66.54
2022-09-15T18:53:54.503Z,66.60
2022-09-15T18:56:23.444Z,66.53
2022-09-15T18:58:55.953Z,66.50
2022-09-15T19:01:24.689Z,66.55
2022-09-15T19:03:54.422Z,66.50
2022-09-15T19:06:23.192Z,66.46
2022-09-15T19:08:54.636Z,66.62
2022-09-15T19:11:23.952Z,66.66
2022-09-15T19:13:53.696Z,66.63
2022-09-15T19:16:34.492Z,66.49
2022-09-15T19:19:13.193Z,66.59
2022-09-15T19:21:42.231Z,66.58
2022-09-15T19:24:11.553Z,66.55
2022-09-15T19:26:39.541Z,66.68
2022-09-15T19:29:15.185Z,66.67
2022-09-15T19:31:46.631Z,66.78
2022-09-15T19:34:16.723Z,66.82
2022-09-15T19:36:45.122Z,66.91
2022-09-15T19:39:14.967Z,67.04
2022-09-15T19:41:43.307Z,66.97
2022-09-15T19:44:11.675Z,67.10
2022-09-15T19:46:40.253Z,67.15
2022-09-15T19:49:10.022Z,67.21
2022-09-15T19:51:38.678Z,67.15
2022-09-15T19:54:07.886Z,67.31
2022-09-15T19:56:36.580Z,67.48
2022-09-15T19:59:06.052Z,67.60
2022-09-15T20:01:34.418Z,67.62
2022-09-15T20:04:04.031Z,67.72
2022-09-15T20:06:33.843Z,67.75
2022-09-15T20:09:03.947Z,67.76
2022-09-15T20:11:33.495Z,67.76
2022-09-15T20:14:02.630Z,67.84
2022-09-15T20:16:31.346Z,67.98
2022-09-15T20:19:00.681Z,67.95
2022-09-15T20:21:51.414Z,68.01
2022-09-15T20:24:23.172Z,68.07
2022-09-15T20:26:52.985Z,68.14
2022-09-15T20:29:21.393Z,68.16
2022-09-15T20:31:50.560Z,68.28
2022-09-15T20:34:19.385Z,68.32
2022-09-15T20:36:48.019Z,68.34
2022-09-15T20:39:19.571Z,68.31
2022-09-15T20:41:49.768Z,68.38
2022-09-15T20:44:18.442Z,68.36
2022-09-15T20:46:48.455Z,68.52
2022-09-15T20:49:17.466Z,68.56
2022-09-15T20:51:46.586Z,68.48
2022-09-15T20:54:15.323Z,68.62
2022-09-15T20:56:45.125Z,68.62
2022-09-15T20:59:15.842Z,68.75
2022-09-15T21:01:44.114Z,68.74
2022-09-15T21:04:13.237Z,68.75
2022-09-15T21:06:41.830Z,68.85
2022-09-15T21:09:09.857Z,69.04
2022-09-15T21:11:39.541Z,68.98
2022-09-15T21:14:07.731Z,69.14
2022-09-15T21:16:35.648Z,69.17
2022-09-15T21:19:04.074Z,69.26
2022-09-15T21:21:33.758Z,69.26
2022-09-15T21:24:04.836Z,69.35
2022-09-15T21:26:35.569Z,69.52
2022-09-15T21:29:04.352Z,69.51
2022-09-15T21:31:33.668Z,69.65
2022-09-15T21:34:02.387Z,69.67
2022-09-15T21:36:32.031Z,69.62
2022-09-15T21:39:00.445Z,69.74
2022-09-15T21:41:32.644Z,69.92
2022-09-15T21:44:01.419Z,69.97
2022-09-15T21:46:31.476Z,69.96
2022-09-15T21:49:00.328Z,69.97
2022-09-15T21:51:29.737Z,70.14
2022-09-15T21:53:59.795Z,70.32
2022-09-15T21:56:29.922Z,70.41
2022-09-15T21:58:57.855Z,70.51
2022-09-15T22:01:29.468Z,70.41
2022-09-15T22:04:01.396Z,70.48
2022-09-15T22:06:32.573Z,70.59
2022-09-15T22:09:03.566Z,70.63
2022-09-15T22:11:32.059Z,70.83
2022-09-15T22:14:03.145Z,70.78
2022-09-15T22:16:31.418Z,70.82
2022-09-15T22:19:00.337Z,70.92
2022-09-15T22:21:33.045Z,71.09
2022-09-15T22:24:04.914Z,70.91
2022-09-15T22:26:36.684Z,71.05
2022-09-15T22:30:07.223Z,71.09
2022-09-15T22:32:46.168Z,71.31
2022-09-15T22:35:23.013Z,71.50
2022-09-15T22:37:50.892Z,71.53
2022-09-15T22:40:19.128Z,71.56
2022-09-15T22:42:48.476Z,71.58
2022-09-15T22:45:16.775Z,71.61
2022-09-15T22:47:47.733Z,71.69
2022-09-15T22:50:16.509Z,71.71
2022-09-15T22:52:44.838Z,71.80
2022-09-15T22:55:13.677Z,71.84
2022-09-15T22:57:41.867Z,71.84
2022-09-15T23:00:12.369Z,71.92
2022-09-15T23:02:41.042Z,71.98
2022-09-15T23:05:10.465Z,71.96
2022-09-15T23:07:38.649Z,72.09
2022-09-15T23:10:06.926Z,72.02
2022-09-15T23:12:35.045Z,71.96
2022-09-15T23:15:04.763Z,72.08
2022-09-15T23:17:34.588Z,72.04
2022-09-15T23:20:03.403Z,72.12
2022-09-15T23:22:32.077Z,72.08
2022-09-15T23:25:04.412Z,72.01
2022-09-15T23:27:32.351Z,71.95
2022-09-15T23:30:06.651Z,71.96
2022-09-15T23:32:38.608Z,72.00
2022-09-15T23:35:08.406Z,71.95
2022-09-15T23:37:36.587Z,72.03
2022-09-15T23:40:06.090Z,71.99
2022-09-15T23:42:43.408Z,71.94
2022-09-15T23:45:11.223Z,71.93
2022-09-15T23:47:38.954Z,72.09
2022-09-15T23:50:07.991Z,72.13
2022-09-15T23:52:36.994Z,72.12
2022-09-15T23:55:05.255Z,72.08
2022-09-15T23:57:33.358Z,72.04
